createdAt,value
2019-05-19T00:00:13.194Z,14.20
2019-05-19T00:02:42.597Z,14.10
2019-05-19T00:05:12.941Z,14.00
2019-05-19T00:07:42.357Z,14.00
2019-05-19T00:10:12.050Z,13.90
2019-05-19T00:12:41.405Z,13.80
2019-05-19T00:15:11.165Z,13.80
2019-05-19T00:17:40.533Z,13.70
2019-05-19T00:20:10.822Z,13.80
2019-05-19T00:22:40.179Z,13.70
2019-05-19T00:25:09.950Z,13.60
2019-05-19T00:27:39.291Z,13.60
2019-05-19T00:30:10.500Z,13.50
2019-05-19T00:32:39.836Z,13.50
2019-05-19T00:35:09.275Z,13.50
2019-05-19T00:37:38.604Z,13.50
2019-05-19T00:40:07.955Z,13.50
2019-05-19T00:42:37.642Z,13.50
2019-05-19T00:45:08.431Z,13.50
2019-05-19T00:47:37.881Z,13.50
2019-05-19T00:50:07.282Z,13.50
2019-05-19T00:52:36.961Z,13.50
2019-05-19T00:55:06.855Z,13.50
2019-05-19T00:57:38.251Z,13.50
2019-05-19T01:00:08.325Z,13.50
2019-05-19T01:02:37.616Z,13.50
2019-05-19T01:05:08.111Z,13.50
2019-05-19T01:07:37.626Z,13.50
2019-05-19T01:10:09.460Z,13.50
2019-05-19T01:12:38.749Z,13.40
2019-05-19T01:15:09.593Z,13.40
2019-05-19T01:17:38.986Z,13.40
2019-05-19T01:20:08.917Z,13.40
2019-05-19T01:22:38.273Z,13.40
2019-05-19T01:25:08.801Z,13.40
2019-05-19T01:27:38.149Z,13.40
2019-05-19T01:30:07.967Z,13.40
2019-05-19T01:32:37.306Z,13.40
2019-05-19T01:35:07.345Z,13.30
2019-05-19T01:37:36.692Z,13.20
2019-05-19T01:40:07.685Z,13.20
2019-05-19T01:42:37.157Z,13.20
2019-05-19T01:45:07.918Z,13.20
2019-05-19T01:47:37.331Z,13.30
2019-05-19T01:50:17.731Z,13.30
2019-05-19T01:52:39.051Z,13.20
2019-05-19T01:55:09.212Z,13.10
2019-05-19T01:57:38.620Z,13.10
2019-05-19T02:00:10.158Z,13.10
2019-05-19T02:02:39.518Z,13.10
2019-05-19T02:05:09.353Z,13.10
2019-05-19T02:07:38.693Z,13.10
2019-05-19T02:10:08.797Z,13.00
2019-05-19T02:12:38.133Z,13.00
2019-05-19T02:15:09.076Z,12.90
2019-05-19T02:17:38.375Z,12.90
2019-05-19T02:20:09.166Z,12.80
2019-05-19T02:22:38.519Z,12.90
2019-05-19T02:25:07.843Z,12.90
2019-05-19T02:27:37.142Z,12.80
2019-05-19T02:30:07.236Z,12.80
2019-05-19T02:32:36.613Z,12.70
2019-05-19T02:35:07.065Z,12.60
2019-05-19T02:37:36.353Z,12.50
2019-05-19T02:40:07.632Z,12.30
2019-05-19T02:42:40.114Z,12.20
2019-05-19T02:45:10.202Z,12.20
2019-05-19T02:47:42.043Z,12.20
2019-05-19T02:50:11.739Z,12.30
2019-05-19T02:52:43.842Z,12.30
2019-05-19T02:55:14.353Z,12.30
2019-05-19T02:57:45.567Z,12.30
2019-05-19T03:00:15.578Z,12.30
2019-05-19T03:02:45.071Z,12.40
2019-05-19T03:05:16.017Z,12.40
2019-05-19T03:07:45.341Z,12.40
2019-05-19T03:10:15.085Z,12.30
2019-05-19T03:12:44.437Z,12.30
2019-05-19T03:15:13.806Z,12.30
2019-05-19T03:17:43.154Z,12.30
2019-05-19T03:20:12.949Z,12.30
2019-05-19T03:22:42.241Z,12.20
2019-05-19T03:25:12.976Z,12.20
2019-05-19T03:27:42.329Z,12.10
2019-05-19T03:30:49.548Z,12.20
2019-05-19T03:33:22.517Z,12.10
2019-05-19T03:35:51.950Z,12.20
2019-05-19T03:38:21.293Z,12.20
2019-05-19T03:40:50.758Z,12.20
2019-05-19T03:43:20.045Z,12.20
2019-05-19T03:45:49.395Z,12.30
2019-05-19T03:48:18.676Z,12.30
2019-05-19T03:50:48.095Z,12.30
2019-05-19T03:53:17.371Z,12.40
2019-05-19T03:55:46.737Z,12.40
2019-05-19T03:58:16.048Z,12.50
2019-05-19T04:00:45.451Z,12.50
2019-05-19T04:03:14.742Z,12.50
2019-05-19T04:05:44.127Z,12.50
2019-05-19T04:08:14.373Z,12.60
2019-05-19T04:10:43.797Z,12.70
2019-05-19T04:13:13.145Z,12.80
2019-05-19T04:15:42.490Z,13.00
2019-05-19T04:18:11.774Z,13.10
2019-05-19T04:20:41.117Z,13.10
2019-05-19T04:23:10.465Z,13.10
2019-05-19T04:25:39.857Z,12.80
2019-05-19T04:28:09.238Z,12.80
2019-05-19T04:30:38.575Z,12.80
2019-05-19T04:33:07.857Z,12.70
2019-05-19T04:35:37.262Z,12.60
2019-05-19T04:38:06.560Z,12.60
2019-05-19T04:40:35.909Z,12.60
2019-05-19T04:43:05.257Z,12.70
2019-05-19T04:45:34.622Z,12.70
2019-05-19T04:48:04.103Z,12.80
2019-05-19T04:50:33.461Z,12.80
2019-05-19T04:53:02.823Z,12.90
2019-05-19T04:55:32.190Z,12.90
2019-05-19T04:58:01.546Z,13.00
2019-05-19T05:00:30.925Z,13.00
2019-05-19T05:03:00.358Z,13.10
2019-05-19T05:05:29.769Z,13.20
2019-05-19T05:07:59.144Z,13.30
2019-05-19T05:10:28.580Z,13.40
2019-05-19T05:12:57.923Z,13.40
2019-05-19T05:15:27.228Z,13.60
2019-05-19T05:17:57.066Z,13.70
2019-05-19T05:20:26.388Z,13.70
2019-05-19T05:22:55.723Z,13.90
2019-05-19T05:25:25.006Z,13.90
2019-05-19T05:27:54.441Z,14.00
2019-05-19T05:30:23.758Z,14.20
2019-05-19T05:32:53.109Z,14.30
2019-05-19T05:35:22.450Z,14.40
2019-05-19T05:37:51.736Z,14.50
2019-05-19T05:40:21.065Z,14.60
2019-05-19T05:42:50.357Z,14.70
2019-05-19T05:45:20.124Z,14.80
2019-05-19T05:47:50.429Z,15.00
2019-05-19T05:50:19.722Z,15.10
2019-05-19T05:52:49.079Z,15.20
2019-05-19T05:55:18.524Z,15.20
2019-05-19T05:57:47.974Z,15.30
2019-05-19T06:00:17.911Z,15.40
2019-05-19T06:02:47.311Z,15.50
2019-05-19T06:05:16.721Z,15.60
2019-05-19T06:07:46.144Z,15.60
2019-05-19T06:10:16.432Z,15.80
2019-05-19T06:12:45.919Z,15.80
2019-05-19T06:15:15.941Z,15.90
2019-05-19T06:17:45.316Z,15.90
2019-05-19T06:20:15.078Z,15.90
2019-05-19T06:22:55.885Z,16.00
2019-05-19T06:25:15.677Z,16.00
2019-05-19T06:27:45.086Z,16.00
2019-05-19T06:30:15.239Z,16.10
2019-05-19T06:32:48.049Z,16.20
2019-05-19T06:35:18.566Z,16.30
2019-05-19T06:37:47.910Z,16.40
2019-05-19T06:40:17.758Z,16.60
2019-05-19T06:42:47.169Z,16.80
2019-05-19T06:45:17.831Z,16.90
2019-05-19T06:47:47.226Z,17.00
2019-05-19T06:50:18.261Z,17.10
2019-05-19T06:52:47.663Z,17.30
2019-05-19T06:55:17.498Z,17.30
2019-05-19T06:57:46.878Z,17.40
2019-05-19T07:00:16.657Z,17.50
2019-05-19T07:02:46.081Z,17.70
2019-05-19T07:05:16.981Z,17.90
2019-05-19T07:07:46.277Z,18.10
2019-05-19T07:10:15.626Z,18.30
2019-05-19T07:12:45.079Z,18.50
2019-05-19T07:15:15.985Z,18.60
2019-05-19T07:17:45.456Z,18.70
2019-05-19T07:20:15.273Z,18.80
2019-05-19T07:22:44.645Z,18.90
2019-05-19T07:25:14.603Z,18.90
2019-05-19T07:27:44.057Z,18.90
2019-05-19T07:30:15.020Z,19.00
2019-05-19T07:32:44.464Z,19.10
2019-05-19T07:35:14.611Z,19.20
2019-05-19T07:37:43.982Z,19.30
2019-05-19T07:40:13.862Z,19.40
2019-05-19T07:42:49.381Z,19.50
2019-05-19T07:45:19.201Z,19.70
2019-05-19T07:47:48.566Z,19.70
2019-05-19T07:50:17.922Z,19.80
2019-05-19T07:52:48.375Z,19.90
2019-05-19T07:55:17.747Z,19.90
2019-05-19T07:57:47.159Z,20.00
2019-05-19T08:00:17.446Z,20.20
2019-05-19T08:02:46.925Z,20.30
2019-05-19T08:05:16.453Z,20.40
2019-05-19T08:07:45.801Z,20.50
2019-05-19T08:10:15.697Z,20.70
2019-05-19T08:12:45.175Z,20.80
2019-05-19T08:15:15.103Z,20.90
2019-05-19T08:17:44.465Z,21.00
2019-05-19T08:20:15.324Z,21.10
2019-05-19T08:22:44.698Z,21.00
2019-05-19T08:25:15.356Z,21.00
2019-05-19T08:27:44.775Z,21.00
2019-05-19T08:30:14.847Z,21.00
2019-05-19T08:32:44.200Z,21.10
2019-05-19T08:35:13.520Z,21.00
2019-05-19T08:37:42.854Z,21.00
2019-05-19T08:40:13.040Z,20.90
2019-05-19T08:42:42.377Z,20.80
2019-05-19T08:45:11.886Z,20.70
2019-05-19T08:47:41.173Z,20.60
2019-05-19T08:50:11.917Z,20.60
2019-05-19T08:52:41.206Z,20.60
2019-05-19T08:55:10.989Z,20.70
2019-05-19T08:57:40.342Z,20.60
2019-05-19T09:00:10.230Z,20.60
2019-05-19T09:02:39.581Z,20.60
2019-05-19T09:05:09.349Z,20.70
2019-05-19T09:07:38.634Z,20.60
2019-05-19T09:10:08.953Z,20.70
2019-05-19T09:12:38.354Z,20.80
2019-05-19T09:15:08.804Z,20.90
2019-05-19T09:17:38.081Z,21.10
2019-05-19T09:20:08.626Z,21.20
2019-05-19T09:22:37.919Z,21.20
2019-05-19T09:25:07.886Z,21.20
2019-05-19T09:27:37.173Z,21.20
2019-05-19T09:30:07.211Z,21.10
2019-05-19T09:32:36.541Z,21.10
2019-05-19T09:35:06.896Z,21.10
2019-05-19T09:37:36.258Z,21.00
2019-05-19T09:40:06.829Z,20.90
2019-05-19T09:42:36.129Z,20.70
2019-05-19T09:45:06.566Z,20.50
2019-05-19T09:47:35.908Z,20.40
2019-05-19T09:50:06.810Z,20.40
2019-05-19T09:52:36.204Z,20.30
2019-05-19T09:55:06.825Z,20.30
2019-05-19T09:57:36.237Z,20.20
2019-05-19T10:00:06.953Z,20.10
2019-05-19T10:02:36.285Z,20.00
2019-05-19T10:05:06.308Z,19.90
2019-05-19T10:07:35.835Z,19.80
2019-05-19T10:10:11.883Z,19.80
2019-05-19T10:12:41.225Z,19.70
2019-05-19T10:15:11.309Z,19.70
2019-05-19T10:17:40.933Z,19.70
2019-05-19T10:20:12.301Z,19.60
2019-05-19T10:22:41.664Z,19.60
2019-05-19T10:25:21.784Z,19.60
2019-05-19T10:27:43.136Z,19.60
2019-05-19T10:30:13.063Z,19.60
2019-05-19T10:32:42.433Z,19.50
2019-05-19T10:35:12.011Z,19.50
2019-05-19T10:37:41.452Z,19.50
2019-05-19T10:40:11.527Z,19.50
2019-05-19T10:42:40.975Z,19.40
2019-05-19T10:45:11.418Z,19.40
2019-05-19T10:47:41.081Z,19.30
2019-05-19T10:50:11.507Z,19.30
2019-05-19T10:52:40.871Z,19.30
2019-05-19T10:55:11.013Z,19.30
2019-05-19T10:57:40.445Z,19.20
2019-05-19T11:00:09.836Z,19.20
2019-05-19T11:02:39.137Z,19.10
2019-05-19T11:05:11.124Z,19.10
2019-05-19T11:07:40.117Z,19.10
2019-05-19T11:10:10.046Z,19.10
2019-05-19T11:12:39.376Z,19.00
2019-05-19T11:15:09.672Z,19.10
2019-05-19T11:17:39.121Z,19.10
2019-05-19T11:20:08.473Z,19.10
2019-05-19T11:22:37.798Z,19.10
2019-05-19T11:25:07.799Z,19.20
2019-05-19T11:27:37.205Z,19.20
2019-05-19T11:30:06.637Z,19.20
2019-05-19T11:32:36.002Z,19.20
2019-05-19T11:35:05.753Z,19.30
2019-05-19T11:37:35.060Z,19.30
2019-05-19T11:40:04.926Z,19.30
2019-05-19T11:42:34.269Z,19.40
2019-05-19T11:45:03.803Z,19.50
2019-05-19T11:47:33.226Z,19.60
2019-05-19T11:50:02.583Z,19.70
2019-05-19T11:52:31.933Z,19.90
2019-05-19T11:55:01.278Z,20.10
2019-05-19T11:57:30.634Z,20.40
2019-05-19T11:59:59.985Z,20.70
2019-05-19T12:02:29.449Z,21.00
2019-05-19T12:04:58.749Z,21.20
2019-05-19T12:07:28.089Z,21.30
2019-05-19T12:09:57.373Z,21.30
2019-05-19T12:12:26.708Z,21.30
2019-05-19T12:14:56.002Z,21.30
2019-05-19T12:17:25.381Z,21.40
2019-05-19T12:19:54.741Z,21.50
2019-05-19T12:22:24.037Z,21.50
2019-05-19T12:24:53.394Z,21.50
2019-05-19T12:27:22.769Z,21.60
2019-05-19T12:29:52.161Z,21.70
2019-05-19T12:32:21.670Z,21.80
2019-05-19T12:34:51.209Z,21.90
2019-05-19T12:37:20.564Z,22.10
2019-05-19T12:39:49.929Z,22.40
2019-05-19T12:42:19.278Z,22.30
2019-05-19T12:44:48.797Z,22.20
2019-05-19T12:47:18.205Z,22.40
2019-05-19T12:49:48.624Z,22.60
2019-05-19T12:52:17.980Z,22.70
2019-05-19T12:54:47.437Z,22.80
2019-05-19T12:57:16.776Z,23.00
2019-05-19T12:59:46.117Z,23.30
2019-05-19T13:02:15.553Z,23.30
2019-05-19T13:04:44.882Z,23.40
2019-05-19T13:07:14.842Z,23.80
2019-05-19T13:09:44.259Z,24.20
2019-05-19T13:12:13.825Z,24.40
2019-05-19T13:14:43.253Z,24.70
2019-05-19T13:17:12.594Z,24.90
2019-05-19T13:19:41.926Z,24.90
2019-05-19T13:22:11.371Z,24.60
2019-05-19T13:24:40.697Z,24.00
2019-05-19T13:27:10.082Z,23.60
2019-05-19T13:29:39.423Z,23.70
2019-05-19T13:32:08.842Z,24.10
2019-05-19T13:34:38.285Z,24.40
2019-05-19T13:37:07.617Z,24.70
2019-05-19T13:39:36.972Z,25.00
2019-05-19T13:42:06.357Z,25.20
2019-05-19T13:44:35.813Z,25.30
2019-05-19T13:47:05.209Z,25.10
2019-05-19T13:49:34.708Z,24.80
2019-05-19T13:52:04.145Z,24.70
2019-05-19T13:54:33.605Z,24.80
2019-05-19T13:57:11.708Z,24.90
2019-05-19T13:59:34.071Z,24.70
2019-05-19T14:02:03.403Z,24.50
2019-05-19T14:04:32.793Z,24.50
2019-05-19T14:07:02.277Z,24.40
2019-05-19T14:09:31.654Z,24.70
2019-05-19T14:12:01.058Z,24.70
2019-05-19T14:14:30.528Z,24.30
2019-05-19T14:16:59.981Z,24.20
2019-05-19T14:19:29.353Z,24.30
2019-05-19T14:21:58.769Z,24.90
2019-05-19T14:24:28.137Z,25.10
2019-05-19T14:26:57.586Z,25.10
2019-05-19T14:29:26.982Z,25.10
2019-05-19T14:31:56.346Z,25.20
2019-05-19T14:34:25.791Z,25.40
2019-05-19T14:36:55.310Z,25.80
2019-05-19T14:39:24.677Z,25.90
2019-05-19T14:41:58.929Z,25.60
2019-05-19T14:44:28.312Z,25.00
2019-05-19T14:46:57.665Z,24.70
2019-05-19T14:49:27.053Z,25.00
2019-05-19T14:51:56.509Z,25.30
2019-05-19T14:54:25.874Z,25.70
2019-05-19T14:56:55.169Z,25.80
2019-05-19T14:59:24.561Z,25.50
2019-05-19T15:01:54.014Z,25.30
2019-05-19T15:04:23.405Z,25.20
2019-05-19T15:06:52.727Z,25.10
2019-05-19T15:09:22.019Z,25.20
2019-05-19T15:11:51.380Z,25.10
2019-05-19T15:14:20.782Z,25.00
2019-05-19T15:16:50.269Z,25.10
2019-05-19T15:19:19.935Z,25.20
2019-05-19T15:21:49.317Z,25.10
2019-05-19T15:24:18.709Z,24.70
2019-05-19T15:26:48.093Z,24.20
2019-05-19T15:29:17.475Z,24.00
2019-05-19T15:31:46.829Z,23.60
2019-05-19T15:34:16.188Z,23.30
2019-05-19T15:36:46.022Z,23.10
2019-05-19T15:39:15.316Z,22.80
2019-05-19T15:41:44.661Z,22.70
2019-05-19T15:44:14.131Z,22.50
2019-05-19T15:46:43.493Z,22.50
2019-05-19T15:49:12.993Z,22.40
2019-05-19T15:51:59.257Z,22.40
2019-05-19T15:54:13.501Z,22.30
2019-05-19T15:56:42.856Z,22.30
2019-05-19T15:59:12.303Z,22.10
2019-05-19T16:01:41.838Z,22.00
2019-05-19T16:04:11.263Z,21.90
2019-05-19T16:06:40.660Z,21.90
2019-05-19T16:09:10.056Z,22.80
2019-05-19T16:11:39.424Z,26.00
2019-05-19T16:14:08.875Z,30.30
2019-05-19T16:16:38.237Z,33.50
2019-05-19T16:19:07.768Z,37.20
2019-05-19T16:21:37.129Z,39.60
2019-05-19T16:24:06.605Z,39.70
2019-05-19T16:26:36.009Z,38.50
2019-05-19T16:29:05.372Z,40.00
2019-05-19T16:31:34.758Z,38.60
2019-05-19T16:34:04.241Z,36.90
2019-05-19T16:36:33.762Z,35.40
2019-05-19T16:39:04.569Z,34.20
2019-05-19T16:41:33.958Z,32.60
2019-05-19T16:44:03.685Z,30.20
2019-05-19T16:46:33.121Z,29.70
2019-05-19T16:49:02.417Z,31.30
2019-05-19T16:51:31.746Z,32.30
2019-05-19T16:54:04.185Z,34.10
2019-05-19T16:56:33.571Z,34.20
2019-05-19T16:59:02.906Z,34.50
2019-05-19T17:01:32.337Z,33.70
2019-05-19T17:04:01.762Z,33.40
2019-05-19T17:06:31.146Z,35.50
2019-05-19T17:09:00.596Z,34.50
2019-05-19T17:11:29.969Z,33.60
2019-05-19T17:13:59.309Z,36.40
2019-05-19T17:16:28.632Z,36.70
2019-05-19T17:18:58.061Z,37.80
2019-05-19T17:21:27.465Z,38.70
2019-05-19T17:23:56.850Z,38.90
2019-05-19T17:26:26.178Z,38.80
2019-05-19T17:29:00.585Z,39.40
2019-05-19T17:31:26.567Z,38.00
2019-05-19T17:33:55.901Z,37.60
2019-05-19T17:36:27.385Z,36.60
2019-05-19T17:38:56.249Z,35.00
2019-05-19T17:41:25.573Z,32.20
2019-05-19T17:43:54.898Z,29.90
2019-05-19T17:46:24.269Z,28.00
2019-05-19T17:48:53.561Z,26.20
2019-05-19T17:51:22.895Z,28.20
2019-05-19T17:53:52.280Z,32.10
2019-05-19T17:56:22.839Z,33.80
2019-05-19T17:58:53.202Z,37.00
2019-05-19T18:01:22.593Z,34.70
2019-05-19T18:03:52.373Z,36.50
2019-05-19T18:06:21.836Z,38.60
2019-05-19T18:08:51.199Z,40.00
2019-05-19T18:11:20.734Z,38.40
2019-05-19T18:13:50.227Z,34.80
2019-05-19T18:16:19.805Z,31.50
2019-05-19T18:18:49.427Z,29.00
2019-05-19T18:21:19.023Z,27.00
2019-05-19T18:23:48.815Z,25.50
2019-05-19T18:26:18.301Z,24.30
2019-05-19T18:28:47.646Z,23.50
2019-05-19T18:31:17.006Z,22.90
2019-05-19T18:33:46.352Z,22.30
2019-05-19T18:36:15.745Z,21.80
2019-05-19T18:38:45.107Z,21.50
2019-05-19T18:41:14.459Z,21.10
2019-05-19T18:43:43.811Z,20.70
2019-05-19T18:46:13.158Z,20.40
2019-05-19T18:48:42.514Z,20.10
2019-05-19T18:51:11.867Z,19.90
2019-05-19T18:53:41.217Z,19.70
2019-05-19T18:56:10.717Z,19.60
2019-05-19T18:58:40.079Z,19.40
2019-05-19T19:01:09.429Z,19.20
2019-05-19T19:03:38.849Z,19.10
2019-05-19T19:06:08.578Z,18.90
2019-05-19T19:08:38.223Z,18.70
2019-05-19T19:11:07.768Z,18.60
2019-05-19T19:13:37.539Z,18.50
2019-05-19T19:16:07.104Z,18.40
2019-05-19T19:18:36.680Z,18.20
2019-05-19T19:21:06.202Z,18.00
2019-05-19T19:23:35.589Z,17.90
2019-05-19T19:26:04.993Z,17.70
2019-05-19T19:28:34.395Z,17.60
2019-05-19T19:31:03.773Z,17.60
2019-05-19T19:33:33.233Z,17.40
2019-05-19T19:36:02.711Z,17.40
2019-05-19T19:38:32.138Z,17.30
2019-05-19T19:41:01.548Z,17.30
2019-05-19T19:43:31.021Z,17.20
2019-05-19T19:46:00.371Z,17.20
2019-05-19T19:48:30.746Z,17.10
2019-05-19T19:51:00.182Z,17.10
2019-05-19T19:53:29.497Z,17.00
2019-05-19T19:55:58.870Z,16.90
2019-05-19T19:58:28.222Z,16.80
2019-05-19T20:00:57.663Z,16.80
2019-05-19T20:03:27.083Z,16.80
2019-05-19T20:05:56.590Z,16.70
2019-05-19T20:08:26.063Z,16.70
2019-05-19T20:10:55.485Z,16.70
2019-05-19T20:13:24.969Z,16.50
2019-05-19T20:15:54.441Z,16.50
2019-05-19T20:18:23.759Z,16.50
2019-05-19T20:20:53.205Z,16.40
2019-05-19T20:23:22.781Z,16.30
2019-05-19T20:25:52.279Z,16.30
2019-05-19T20:28:21.810Z,16.30
2019-05-19T20:30:51.266Z,16.20
2019-05-19T20:33:20.611Z,16.10
2019-05-19T20:35:49.914Z,16.00
2019-05-19T20:38:19.385Z,16.00
2019-05-19T20:40:48.914Z,16.10
2019-05-19T20:43:18.281Z,16.20
2019-05-19T20:45:47.703Z,16.20
2019-05-19T20:48:17.079Z,16.20
2019-05-19T20:50:46.563Z,16.30
2019-05-19T20:53:15.961Z,16.30
2019-05-19T20:55:45.381Z,16.40
2019-05-19T20:58:14.724Z,16.40
2019-05-19T21:00:50.499Z,16.40
2019-05-19T21:03:15.259Z,16.30
2019-05-19T21:05:44.682Z,16.20
2019-05-19T21:08:14.587Z,16.20
2019-05-19T21:10:43.977Z,16.20
2019-05-19T21:13:13.302Z,16.10
2019-05-19T21:15:43.290Z,16.00
2019-05-19T21:18:12.582Z,16.00
2019-05-19T21:20:41.922Z,15.90
2019-05-19T21:23:11.284Z,15.80
2019-05-19T21:25:40.629Z,15.70
2019-05-19T21:28:09.920Z,15.70
2019-05-19T21:30:39.227Z,15.60
2019-05-19T21:33:08.506Z,15.60
2019-05-19T21:35:37.840Z,15.60
2019-05-19T21:38:07.154Z,15.60
2019-05-19T21:40:36.539Z,15.50
2019-05-19T21:43:05.821Z,15.50
2019-05-19T21:45:35.161Z,15.40
2019-05-19T21:48:04.537Z,15.40
2019-05-19T21:50:33.817Z,15.40
2019-05-19T21:53:06.359Z,15.40
2019-05-19T21:55:34.233Z,15.40
2019-05-19T21:58:03.522Z,15.30
2019-05-19T22:00:33.756Z,15.30
2019-05-19T22:03:03.708Z,15.30
2019-05-19T22:05:33.041Z,15.30
2019-05-19T22:08:09.384Z,15.30
2019-05-19T22:10:38.778Z,15.30
2019-05-19T22:13:08.148Z,15.30
2019-05-19T22:15:37.491Z,15.40
2019-05-19T22:18:06.769Z,15.40
2019-05-19T22:20:36.104Z,15.40
2019-05-19T22:23:05.449Z,15.40
2019-05-19T22:25:34.825Z,15.40
2019-05-19T22:28:04.113Z,15.40
2019-05-19T22:30:33.421Z,15.40
2019-05-19T22:33:02.741Z,15.40
2019-05-19T22:35:32.079Z,15.40
2019-05-19T22:38:01.377Z,15.50
2019-05-19T22:40:30.794Z,15.50
2019-05-19T22:43:00.074Z,15.40
2019-05-19T22:45:29.425Z,15.40
2019-05-19T22:47:58.706Z,15.40
2019-05-19T22:50:28.041Z,15.40
2019-05-19T22:52:57.377Z,15.40
2019-05-19T22:55:26.665Z,15.50
2019-05-19T22:57:56.009Z,15.50
2019-05-19T23:00:27.094Z,15.50
2019-05-19T23:02:56.472Z,15.50
2019-05-19T23:05:25.821Z,15.50
2019-05-19T23:07:55.153Z,15.50
2019-05-19T23:10:25.069Z,15.60
2019-05-19T23:12:54.407Z,15.60
2019-05-19T23:15:24.143Z,15.60
2019-05-19T23:17:53.494Z,15.60
2019-05-19T23:20:23.649Z,15.60
2019-05-19T23:22:52.985Z,15.60
2019-05-19T23:25:22.280Z,15.50
2019-05-19T23:27:51.637Z,15.50
2019-05-19T23:30:20.971Z,15.40
2019-05-19T23:32:50.309Z,15.50
2019-05-19T23:35:19.662Z,15.50
2019-05-19T23:37:49.618Z,15.40
2019-05-19T23:40:18.905Z,15.30
2019-05-19T23:42:48.241Z,15.30
2019-05-19T23:45:17.925Z,15.30
2019-05-19T23:47:47.277Z,15.20
2019-05-19T23:50:16.965Z,15.30
2019-05-19T23:52:46.330Z,15.20
2019-05-19T23:55:15.670Z,15.10
2019-05-19T23:57:44.966Z,15.10
